Главная страница
METAR-TAF:

METAR-TAF

Аэропорты :

Эсбьерг, Дания

широта: 55-32N, долгота: 008-34E, высота над уровнем моря: 30 м

Текущие метеонаблюдения

Эта сводка был подготовлена 38 минут назад, в 22:50 UTC
Ветер 11 Узел от западный
Температура 6°C
Влажность 87%
Давление 1013 hPa
Видимость 10 км и более

METAR: EKEB 072250Z AUTO 27011KT 9999 BKN018/// 06/04 Q1013

Время: 01:28 (23:28 UTC)

Прогноз

Эта сводка был подготовлена 3 часа и 3 минут назад, в 20:25 UTC
Прогноз действительный с 07-го 15 UTC до 07-го 21 UTC
Ветер 8 Узел от западно-северо-западный
Видимость 10 км и более
Рассеянная облачность на высоте 2500 фута
временами
С 07-го 20 UTC до 07-го 21 UTC
Рассеянная облачность на высоте 1200 фута
Отдельные облака на высоте 2000 фута, мощно-кучевые.

TAF: EKEB 072025Z 0715/0721 29008KT 9999 BKN025 TEMPO 0720/0721 BKN012 SCT020TCU

Метеонаблюдения и прогнозы для более 4000 аэропортов (сводки METAR и TAF).

Имеющиеся станции представлены на карте желтыми и красными точками.

Чтобы увидеть название станции, наведите на нее мышь.

Затем щелкните, чтобы увидеть метеонаблюдения и метеопрогнозы.

Управление картой: чтобы увеличить масштаб, щелкните зеленые кнопки с черным крестиком; чтобы уменьшить масштаб, щелкните зеленую кнопку с тире; для просмотра соседних карт щелкайте зеленые стрелки.


METAR-TAF: